sensor_id;sensor_type;location;lat;lon;timestamp;temperature;humidity
31809;DHT22;18379;48.208;-1.518;2022-11-20T00:05:19;8.90;99.90
31809;DHT22;18379;48.208;-1.518;2022-11-20T00:10:21;8.90;99.90
31809;DHT22;18379;48.208;-1.518;2022-11-20T00:15:22;8.90;99.90
31809;DHT22;18379;48.208;-1.518;2022-11-20T00:20:22;8.90;99.90
31809;DHT22;18379;48.208;-1.518;2022-11-20T00:25:23;8.90;99.90
31809;DHT22;18379;48.208;-1.518;2022-11-20T00:30:24;8.90;99.90
31809;DHT22;18379;48.208;-1.518;2022-11-20T00:35:25;8.90;99.90
31809;DHT22;18379;48.208;-1.518;2022-11-20T00:40:25;8.90;99.90
31809;DHT22;18379;48.208;-1.518;2022-11-20T00:45:26;8.90;99.90
31809;DHT22;18379;48.208;-1.518;2022-11-20T00:50:27;8.90;99.90
31809;DHT22;18379;48.208;-1.518;2022-11-20T00:55:28;8.90;99.90
31809;DHT22;18379;48.208;-1.518;2022-11-20T01:00:28;8.90;99.90
31809;DHT22;18379;48.208;-1.518;2022-11-20T01:05:34;9.00;99.90
31809;DHT22;18379;48.208;-1.518;2022-11-20T01:10:35;8.90;99.90
31809;DHT22;18379;48.208;-1.518;2022-11-20T01:15:36;8.90;99.90
31809;DHT22;18379;48.208;-1.518;2022-11-20T01:20:37;9.00;99.90
31809;DHT22;18379;48.208;-1.518;2022-11-20T01:25:38;9.00;99.90
31809;DHT22;18379;48.208;-1.518;2022-11-20T01:30:38;9.00;99.90
31809;DHT22;18379;48.208;-1.518;2022-11-20T01:35:39;9.00;99.90
31809;DHT22;18379;48.208;-1.518;2022-11-20T01:40:40;9.10;99.90
31809;DHT22;18379;48.208;-1.518;2022-11-20T01:46:14;9.20;99.90
31809;DHT22;18379;48.208;-1.518;2022-11-20T01:56:59;9.20;99.90
31809;DHT22;18379;48.208;-1.518;2022-11-20T02:02:01;9.20;99.90
31809;DHT22;18379;48.208;-1.518;2022-11-20T02:07:02;9.20;99.90
31809;DHT22;18379;48.208;-1.518;2022-11-20T02:12:05;9.20;99.90
31809;DHT22;18379;48.208;-1.518;2022-11-20T02:17:26;9.20;99.90
31809;DHT22;18379;48.208;-1.518;2022-11-20T02:22:36;9.30;99.90
31809;DHT22;18379;48.208;-1.518;2022-11-20T02:27:39;9.30;99.90
31809;DHT22;18379;48.208;-1.518;2022-11-20T02:32:40;9.30;99.90
31809;DHT22;18379;48.208;-1.518;2022-11-20T02:37:41;9.40;99.90
31809;DHT22;18379;48.208;-1.518;2022-11-20T02:42:42;9.40;99.90
31809;DHT22;18379;48.208;-1.518;2022-11-20T02:47:42;9.50;99.90
31809;DHT22;18379;48.208;-1.518;2022-11-20T02:52:43;9.50;99.90
31809;DHT22;18379;48.208;-1.518;2022-11-20T02:57:44;9.60;99.90
31809;DHT22;18379;48.208;-1.518;2022-11-20T03:02:45;9.60;99.90
31809;DHT22;18379;48.208;-1.518;2022-11-20T03:07:46;9.60;99.90
31809;DHT22;18379;48.208;-1.518;2022-11-20T03:12:46;9.60;99.90
31809;DHT22;18379;48.208;-1.518;2022-11-20T03:17:47;9.70;99.90
31809;DHT22;18379;48.208;-1.518;2022-11-20T03:22:48;9.60;99.90
31809;DHT22;18379;48.208;-1.518;2022-11-20T03:27:49;9.60;99.90
31809;DHT22;18379;48.208;-1.518;2022-11-20T03:32:53;9.60;99.90
31809;DHT22;18379;48.208;-1.518;2022-11-20T03:37:54;9.60;99.90
31809;DHT22;18379;48.208;-1.518;2022-11-20T03:42:54;9.60;99.90
31809;DHT22;18379;48.208;-1.518;2022-11-20T03:47:55;9.70;99.90
31809;DHT22;18379;48.208;-1.518;2022-11-20T03:53:05;9.70;99.90
31809;DHT22;18379;48.208;-1.518;2022-11-20T03:58:07;9.70;99.90
31809;DHT22;18379;48.208;-1.518;2022-11-20T04:03:08;9.60;99.90
31809;DHT22;18379;48.208;-1.518;2022-11-20T04:08:09;9.70;99.90
31809;DHT22;18379;48.208;-1.518;2022-11-20T04:13:10;9.60;99.90
31809;DHT22;18379;48.208;-1.518;2022-11-20T04:18:11;9.70;99.90
31809;DHT22;18379;48.208;-1.518;2022-11-20T04:23:12;9.70;99.90
31809;DHT22;18379;48.208;-1.518;2022-11-20T04:28:12;9.70;99.90
31809;DHT22;18379;48.208;-1.518;2022-11-20T04:33:13;9.80;99.90
31809;DHT22;18379;48.208;-1.518;2022-11-20T04:38:14;9.90;99.90
31809;DHT22;18379;48.208;-1.518;2022-11-20T04:43:26;9.90;99.90
31809;DHT22;18379;48.208;-1.518;2022-11-20T04:48:34;9.90;99.90
31809;DHT22;18379;48.208;-1.518;2022-11-20T04:53:35;9.90;99.90
31809;DHT22;18379;48.208;-1.518;2022-11-20T04:58:36;10.00;99.90
31809;DHT22;18379;48.208;-1.518;2022-11-20T05:03:38;10.00;99.90
31809;DHT22;18379;48.208;-1.518;2022-11-20T05:08:39;10.00;99.90
31809;DHT22;18379;48.208;-1.518;2022-11-20T05:13:41;9.90;99.90
31809;DHT22;18379;48.208;-1.518;2022-11-20T05:18:42;9.90;99.90
31809;DHT22;18379;48.208;-1.518;2022-11-20T05:23:44;10.00;99.90
31809;DHT22;18379;48.208;-1.518;2022-11-20T05:28:45;10.00;99.90
31809;DHT22;18379;48.208;-1.518;2022-11-20T05:33:46;10.00;99.90
31809;DHT22;18379;48.208;-1.518;2022-11-20T05:38:47;10.10;99.90
31809;DHT22;18379;48.208;-1.518;2022-11-20T05:43:49;10.10;99.90
31809;DHT22;18379;48.208;-1.518;2022-11-20T05:48:50;10.20;99.90
31809;DHT22;18379;48.208;-1.518;2022-11-20T05:53:51;10.10;99.90
31809;DHT22;18379;48.208;-1.518;2022-11-20T05:58:51;10.20;99.90
31809;DHT22;18379;48.208;-1.518;2022-11-20T06:03:54;10.20;99.90
31809;DHT22;18379;48.208;-1.518;2022-11-20T06:08:55;10.20;99.90
31809;DHT22;18379;48.208;-1.518;2022-11-20T06:13:56;10.30;99.90
31809;DHT22;18379;48.208;-1.518;2022-11-20T06:18:57;9.80;99.90
31809;DHT22;18379;48.208;-1.518;2022-11-20T06:23:57;9.70;99.90
31809;DHT22;18379;48.208;-1.518;2022-11-20T06:28:58;9.90;99.90
31809;DHT22;18379;48.208;-1.518;2022-11-20T06:33:59;10.10;99.90
31809;DHT22;18379;48.208;-1.518;2022-11-20T06:39:01;10.10;99.90
31809;DHT22;18379;48.208;-1.518;2022-11-20T06:44:04;10.30;99.90
31809;DHT22;18379;48.208;-1.518;2022-11-20T06:49:06;10.40;99.90
31809;DHT22;18379;48.208;-1.518;2022-11-20T06:54:06;10.40;99.90
31809;DHT22;18379;48.208;-1.518;2022-11-20T06:59:07;10.50;99.90
31809;DHT22;18379;48.208;-1.518;2022-11-20T07:04:08;10.80;99.90
31809;DHT22;18379;48.208;-1.518;2022-11-20T07:09:09;11.00;99.90
31809;DHT22;18379;48.208;-1.518;2022-11-20T07:14:10;11.10;99.90
31809;DHT22;18379;48.208;-1.518;2022-11-20T07:19:11;10.90;99.90
31809;DHT22;18379;48.208;-1.518;2022-11-20T07:24:11;10.80;99.90
31809;DHT22;18379;48.208;-1.518;2022-11-20T07:29:12;10.80;99.90
31809;DHT22;18379;48.208;-1.518;2022-11-20T07:34:13;10.70;99.90
31809;DHT22;18379;48.208;-1.518;2022-11-20T07:39:14;10.70;99.90
31809;DHT22;18379;48.208;-1.518;2022-11-20T07:44:14;10.70;99.90
31809;DHT22;18379;48.208;-1.518;2022-11-20T07:49:15;10.60;99.90
31809;DHT22;18379;48.208;-1.518;2022-11-20T07:54:16;10.70;99.90
31809;DHT22;18379;48.208;-1.518;2022-11-20T07:59:17;10.70;99.90
31809;DHT22;18379;48.208;-1.518;2022-11-20T08:04:17;10.70;99.90
31809;DHT22;18379;48.208;-1.518;2022-11-20T08:09:18;10.60;99.90
31809;DHT22;18379;48.208;-1.518;2022-11-20T08:14:19;10.60;99.90
31809;DHT22;18379;48.208;-1.518;2022-11-20T08:19:23;10.50;99.90
31809;DHT22;18379;48.208;-1.518;2022-11-20T08:24:24;10.60;99.90
31809;DHT22;18379;48.208;-1.518;2022-11-20T08:29:27;10.50;99.90
31809;DHT22;18379;48.208;-1.518;2022-11-20T08:34:27;10.60;99.90
31809;DHT22;18379;48.208;-1.518;2022-11-20T08:39:28;10.60;99.90
31809;DHT22;18379;48.208;-1.518;2022-11-20T08:44:29;10.70;99.90
31809;DHT22;18379;48.208;-1.518;2022-11-20T08:49:30;10.90;99.90
31809;DHT22;18379;48.208;-1.518;2022-11-20T08:54:30;11.00;99.90
31809;DHT22;18379;48.208;-1.518;2022-11-20T08:59:31;11.10;99.90
31809;DHT22;18379;48.208;-1.518;2022-11-20T09:04:32;11.20;99.90
31809;DHT22;18379;48.208;-1.518;2022-11-20T09:09:33;11.40;99.90
31809;DHT22;18379;48.208;-1.518;2022-11-20T09:14:33;11.50;99.90
31809;DHT22;18379;48.208;-1.518;2022-11-20T09:19:34;11.50;99.90
31809;DHT22;18379;48.208;-1.518;2022-11-20T09:24:35;11.40;99.90
31809;DHT22;18379;48.208;-1.518;2022-11-20T09:29:36;11.50;99.90
31809;DHT22;18379;48.208;-1.518;2022-11-20T09:34:37;11.50;99.90
31809;DHT22;18379;48.208;-1.518;2022-11-20T09:39:38;11.60;99.90
31809;DHT22;18379;48.208;-1.518;2022-11-20T09:55:02;12.00;99.90
31809;DHT22;18379;48.208;-1.518;2022-11-20T10:00:06;12.10;99.90
31809;DHT22;18379;48.208;-1.518;2022-11-20T10:05:31;12.30;99.90
31809;DHT22;18379;48.208;-1.518;2022-11-20T10:21:47;12.50;99.90
31809;DHT22;18379;48.208;-1.518;2022-11-20T10:27:29;12.60;99.90
31809;DHT22;18379;48.208;-1.518;2022-11-20T10:32:45;12.80;99.90
31809;DHT22;18379;48.208;-1.518;2022-11-20T10:37:51;12.60;99.90
31809;DHT22;18379;48.208;-1.518;2022-11-20T10:43:23;12.40;99.90
31809;DHT22;18379;48.208;-1.518;2022-11-20T10:48:31;11.80;99.90
31809;DHT22;18379;48.208;-1.518;2022-11-20T11:04:38;12.00;99.90
31809;DHT22;18379;48.208;-1.518;2022-11-20T11:09:49;12.00;99.90
31809;DHT22;18379;48.208;-1.518;2022-11-20T11:14:53;12.10;99.90
31809;DHT22;18379;48.208;-1.518;2022-11-20T11:20:16;12.30;99.90
31809;DHT22;18379;48.208;-1.518;2022-11-20T11:25:35;12.60;99.90
31809;DHT22;18379;48.208;-1.518;2022-11-20T11:30:43;13.00;99.90
31809;DHT22;18379;48.208;-1.518;2022-11-20T11:35:47;13.10;99.90
31809;DHT22;18379;48.208;-1.518;2022-11-20T11:40:48;13.20;99.90
31809;DHT22;18379;48.208;-1.518;2022-11-20T11:45:54;13.00;99.90
31809;DHT22;18379;48.208;-1.518;2022-11-20T11:50:55;12.90;99.90
31809;DHT22;18379;48.208;-1.518;2022-11-20T11:56:07;12.80;99.90
31809;DHT22;18379;48.208;-1.518;2022-11-20T12:06:30;13.10;99.90
31809;DHT22;18379;48.208;-1.518;2022-11-20T12:16:43;13.20;99.90
31809;DHT22;18379;48.208;-1.518;2022-11-20T12:22:04;13.40;99.90
31809;DHT22;18379;48.208;-1.518;2022-11-20T12:32:37;13.80;99.90
31809;DHT22;18379;48.208;-1.518;2022-11-20T12:48:48;13.50;99.90
31809;DHT22;18379;48.208;-1.518;2022-11-20T13:06:13;13.90;99.90
31809;DHT22;18379;48.208;-1.518;2022-11-20T13:20:52;14.00;99.90
31809;DHT22;18379;48.208;-1.518;2022-11-20T13:26:24;14.30;99.90
31809;DHT22;18379;48.208;-1.518;2022-11-20T13:31:31;14.20;99.90
31809;DHT22;18379;48.208;-1.518;2022-11-20T13:36:33;14.20;99.90
31809;DHT22;18379;48.208;-1.518;2022-11-20T13:41:36;14.00;99.90
31809;DHT22;18379;48.208;-1.518;2022-11-20T13:46:41;13.90;99.90
31809;DHT22;18379;48.208;-1.518;2022-11-20T13:51:51;13.90;99.90
31809;DHT22;18379;48.208;-1.518;2022-11-20T14:02:18;13.40;99.90
31809;DHT22;18379;48.208;-1.518;2022-11-20T14:07:23;13.10;99.90
31809;DHT22;18379;48.208;-1.518;2022-11-20T14:12:30;13.10;99.90
31809;DHT22;18379;48.208;-1.518;2022-11-20T14:17:33;13.00;99.90
31809;DHT22;18379;48.208;-1.518;2022-11-20T14:22:35;13.10;99.90
31809;DHT22;18379;48.208;-1.518;2022-11-20T14:27:37;13.20;99.90
31809;DHT22;18379;48.208;-1.518;2022-11-20T14:32:39;13.30;99.90
31809;DHT22;18379;48.208;-1.518;2022-11-20T14:37:41;13.30;99.90
31809;DHT22;18379;48.208;-1.518;2022-11-20T14:42:43;13.50;99.90
31809;DHT22;18379;48.208;-1.518;2022-11-20T14:47:45;13.30;99.90
31809;DHT22;18379;48.208;-1.518;2022-11-20T14:58:05;13.40;99.90
31809;DHT22;18379;48.208;-1.518;2022-11-20T15:03:15;13.40;99.90
31809;DHT22;18379;48.208;-1.518;2022-11-20T15:08:17;13.40;99.90
31809;DHT22;18379;48.208;-1.518;2022-11-20T15:13:22;13.30;99.90
31809;DHT22;18379;48.208;-1.518;2022-11-20T15:18:39;13.30;99.90
31809;DHT22;18379;48.208;-1.518;2022-11-20T15:23:42;13.10;99.90
31809;DHT22;18379;48.208;-1.518;2022-11-20T15:28:44;13.10;99.90
31809;DHT22;18379;48.208;-1.518;2022-11-20T15:33:48;13.10;99.90
31809;DHT22;18379;48.208;-1.518;2022-11-20T15:38:49;13.00;99.90
31809;DHT22;18379;48.208;-1.518;2022-11-20T15:43:50;13.00;99.90
31809;DHT22;18379;48.208;-1.518;2022-11-20T15:48:55;13.00;99.90
31809;DHT22;18379;48.208;-1.518;2022-11-20T15:53:57;13.00;99.90
31809;DHT22;18379;48.208;-1.518;2022-11-20T15:58:58;13.00;99.90
31809;DHT22;18379;48.208;-1.518;2022-11-20T16:04:00;12.90;99.90
31809;DHT22;18379;48.208;-1.518;2022-11-20T16:09:01;12.80;99.90
31809;DHT22;18379;48.208;-1.518;2022-11-20T16:14:02;12.70;99.90
31809;DHT22;18379;48.208;-1.518;2022-11-20T16:19:22;12.70;99.90
31809;DHT22;18379;48.208;-1.518;2022-11-20T16:24:22;12.60;99.90
31809;DHT22;18379;48.208;-1.518;2022-11-20T16:29:23;12.60;99.90
31809;DHT22;18379;48.208;-1.518;2022-11-20T16:34:24;12.50;99.90
31809;DHT22;18379;48.208;-1.518;2022-11-20T16:39:25;12.40;99.90
31809;DHT22;18379;48.208;-1.518;2022-11-20T16:44:26;12.30;99.90
31809;DHT22;18379;48.208;-1.518;2022-11-20T16:49:27;12.30;99.90
31809;DHT22;18379;48.208;-1.518;2022-11-20T16:54:28;12.20;99.90
31809;DHT22;18379;48.208;-1.518;2022-11-20T16:59:28;12.10;99.90
31809;DHT22;18379;48.208;-1.518;2022-11-20T17:04:29;12.10;99.90
31809;DHT22;18379;48.208;-1.518;2022-11-20T17:09:30;12.10;99.90
31809;DHT22;18379;48.208;-1.518;2022-11-20T17:14:31;11.90;99.90
31809;DHT22;18379;48.208;-1.518;2022-11-20T17:19:32;11.80;99.90
31809;DHT22;18379;48.208;-1.518;2022-11-20T17:24:32;11.80;99.90
31809;DHT22;18379;48.208;-1.518;2022-11-20T17:29:33;11.70;99.90
31809;DHT22;18379;48.208;-1.518;2022-11-20T17:34:34;11.60;99.90
31809;DHT22;18379;48.208;-1.518;2022-11-20T17:39:35;11.60;99.90
31809;DHT22;18379;48.208;-1.518;2022-11-20T17:44:36;11.60;99.90
31809;DHT22;18379;48.208;-1.518;2022-11-20T17:49:37;11.50;99.90
31809;DHT22;18379;48.208;-1.518;2022-11-20T17:54:41;11.50;99.90
31809;DHT22;18379;48.208;-1.518;2022-11-20T17:59:42;11.50;99.90
31809;DHT22;18379;48.208;-1.518;2022-11-20T18:04:43;11.50;99.90
31809;DHT22;18379;48.208;-1.518;2022-11-20T18:09:44;11.40;99.90
31809;DHT22;18379;48.208;-1.518;2022-11-20T18:14:47;11.30;99.90
31809;DHT22;18379;48.208;-1.518;2022-11-20T18:19:48;11.30;99.90
31809;DHT22;18379;48.208;-1.518;2022-11-20T18:24:50;11.30;99.90
31809;DHT22;18379;48.208;-1.518;2022-11-20T18:29:51;11.10;99.90
31809;DHT22;18379;48.208;-1.518;2022-11-20T18:34:51;11.10;99.90
31809;DHT22;18379;48.208;-1.518;2022-11-20T18:39:52;11.00;99.90
31809;DHT22;18379;48.208;-1.518;2022-11-20T18:44:53;11.00;99.90
31809;DHT22;18379;48.208;-1.518;2022-11-20T18:49:57;11.10;99.90
31809;DHT22;18379;48.208;-1.518;2022-11-20T18:54:59;11.10;99.90
31809;DHT22;18379;48.208;-1.518;2022-11-20T19:00:01;11.10;99.90
31809;DHT22;18379;48.208;-1.518;2022-11-20T19:05:03;11.00;99.90
31809;DHT22;18379;48.208;-1.518;2022-11-20T19:10:05;10.90;99.90
31809;DHT22;18379;48.208;-1.518;2022-11-20T19:15:06;10.90;99.90
31809;DHT22;18379;48.208;-1.518;2022-11-20T19:20:07;10.90;99.90
31809;DHT22;18379;48.208;-1.518;2022-11-20T19:25:08;10.90;99.90
31809;DHT22;18379;48.208;-1.518;2022-11-20T19:30:10;10.90;99.90
31809;DHT22;18379;48.208;-1.518;2022-11-20T19:35:11;10.90;99.90
31809;DHT22;18379;48.208;-1.518;2022-11-20T19:40:13;10.90;99.90
31809;DHT22;18379;48.208;-1.518;2022-11-20T19:45:13;10.90;99.90
31809;DHT22;18379;48.208;-1.518;2022-11-20T19:50:14;10.80;99.90
31809;DHT22;18379;48.208;-1.518;2022-11-20T19:55:16;10.80;99.90
31809;DHT22;18379;48.208;-1.518;2022-11-20T20:00:17;10.80;99.90
31809;DHT22;18379;48.208;-1.518;2022-11-20T20:05:18;10.80;99.90
31809;DHT22;18379;48.208;-1.518;2022-11-20T20:10:18;10.90;99.90
31809;DHT22;18379;48.208;-1.518;2022-11-20T20:15:19;10.80;99.90
31809;DHT22;18379;48.208;-1.518;2022-11-20T20:20:20;10.80;99.90
31809;DHT22;18379;48.208;-1.518;2022-11-20T20:25:21;10.70;99.90
31809;DHT22;18379;48.208;-1.518;2022-11-20T20:30:28;10.70;99.90
31809;DHT22;18379;48.208;-1.518;2022-11-20T20:35:31;10.70;99.90
31809;DHT22;18379;48.208;-1.518;2022-11-20T20:40:44;10.70;99.90
31809;DHT22;18379;48.208;-1.518;2022-11-20T20:45:50;10.70;99.90
31809;DHT22;18379;48.208;-1.518;2022-11-20T20:50:59;10.70;99.90
31809;DHT22;18379;48.208;-1.518;2022-11-20T20:56:01;10.80;99.90
31809;DHT22;18379;48.208;-1.518;2022-11-20T21:01:04;10.70;99.90
31809;DHT22;18379;48.208;-1.518;2022-11-20T21:06:08;10.80;99.90
31809;DHT22;18379;48.208;-1.518;2022-11-20T21:11:16;10.80;99.90
31809;DHT22;18379;48.208;-1.518;2022-11-20T21:16:19;10.80;99.90
31809;DHT22;18379;48.208;-1.518;2022-11-20T21:21:24;10.70;99.90
31809;DHT22;18379;48.208;-1.518;2022-11-20T21:26:43;10.70;99.90
31809;DHT22;18379;48.208;-1.518;2022-11-20T21:31:44;10.70;99.90
31809;DHT22;18379;48.208;-1.518;2022-11-20T21:36:45;10.60;99.90
31809;DHT22;18379;48.208;-1.518;2022-11-20T21:41:46;10.60;99.90
31809;DHT22;18379;48.208;-1.518;2022-11-20T21:46:47;10.60;99.90
31809;DHT22;18379;48.208;-1.518;2022-11-20T21:51:48;10.60;99.90
31809;DHT22;18379;48.208;-1.518;2022-11-20T21:56:49;10.60;99.90
31809;DHT22;18379;48.208;-1.518;2022-11-20T22:01:49;10.60;99.90
31809;DHT22;18379;48.208;-1.518;2022-11-20T22:06:50;10.60;99.90
31809;DHT22;18379;48.208;-1.518;2022-11-20T22:11:51;10.60;99.90
31809;DHT22;18379;48.208;-1.518;2022-11-20T22:16:52;10.60;99.90
31809;DHT22;18379;48.208;-1.518;2022-11-20T22:21:53;10.60;99.90
31809;DHT22;18379;48.208;-1.518;2022-11-20T22:26:54;10.60;99.90
31809;DHT22;18379;48.208;-1.518;2022-11-20T22:31:55;10.50;99.90
31809;DHT22;18379;48.208;-1.518;2022-11-20T22:36:56;10.40;99.90
31809;DHT22;18379;48.208;-1.518;2022-11-20T22:41:56;10.30;99.90
31809;DHT22;18379;48.208;-1.518;2022-11-20T22:46:57;10.30;99.90
31809;DHT22;18379;48.208;-1.518;2022-11-20T22:51:58;10.30;99.90
31809;DHT22;18379;48.208;-1.518;2022-11-20T22:56:59;10.20;99.90
31809;DHT22;18379;48.208;-1.518;2022-11-20T23:01:59;10.20;99.90
31809;DHT22;18379;48.208;-1.518;2022-11-20T23:07:00;10.20;99.90
31809;DHT22;18379;48.208;-1.518;2022-11-20T23:12:01;10.20;99.90
31809;DHT22;18379;48.208;-1.518;2022-11-20T23:17:01;10.10;99.90
31809;DHT22;18379;48.208;-1.518;2022-11-20T23:22:02;10.10;99.90
31809;DHT22;18379;48.208;-1.518;2022-11-20T23:27:03;10.10;99.90
31809;DHT22;18379;48.208;-1.518;2022-11-20T23:32:04;10.10;99.90
31809;DHT22;18379;48.208;-1.518;2022-11-20T23:37:05;10.10;99.90
31809;DHT22;18379;48.208;-1.518;2022-11-20T23:42:05;10.10;99.90
31809;DHT22;18379;48.208;-1.518;2022-11-20T23:47:06;10.00;99.90
31809;DHT22;18379;48.208;-1.518;2022-11-20T23:52:07;10.00;99.90
31809;DHT22;18379;48.208;-1.518;2022-11-20T23:57:08;10.00;99.90
